Terminal Aerodrome Forecast
Issued by NWS

Home | Current Version | Previous Version | Text Only | Print | Product List | Glossary Off
Versions: 1 2 3 4 5 6 7 8 9 10 11 12 13 14 15

000
FTUS43 KGRB 092300
TAFATW
TAF
KATW 092327Z 1000/1024 30009G14KT P6SM SCT060 BKN080
     FM100100 01003KT P6SM FEW060 SCT080
     FM100300 VRB03KT P6SM SKC
     FM101600 16006KT P6SM SCT040=

USA.gov is the U.S. government's official web portal to all federal, state and local government web resources and services.